Time;durP1;ratioP1;P1;durP2;ratioP2;P2;SDS_P1;SDS_P2;PMS_P1;PMS_P2;Temp;Humidity;BMP_temperature;BMP_pressure;BME280_temperature;BME280_humidity;BME280_pressure;Samples;Min_cycle;Max_cycle;Signal;HPM_P1;HPM_P2
2022/02/10 00:04:31;;;;;;;19.05;7.87;;;;;;;1.78;75.05;101843.80;1870359;77;21118;-59
2022/02/10 00:06:59;;;;;;;12.43;8.15;;;;;;;1.83;75.02;101840.41;1867098;77;21089;-62
2022/02/10 00:17:33;;;;;;;23.12;13.53;;;;;;;1.99;74.96;101841.92;1871294;75;21053;-62
2022/02/10 00:26:15;;;;;;;11.95;7.50;;;;;;;2.03;75.08;101842.41;1905848;75;21573;-62
2022/02/10 00:36:27;;;;;;;11.18;5.15;;;;;;;2.05;75.05;101836.83;1824318;79;21500;-65
2022/02/10 00:39:03;;;;;;;8.63;5.10;;;;;;;2.04;74.95;101835.07;1823820;78;21054;-65
2022/02/10 00:41:22;;;;;;;15.43;5.55;;;;;;;1.98;75.00;101836.30;1822259;79;21073;-64
2022/02/10 00:43:51;;;;;;;9.85;4.33;;;;;;;1.91;75.08;101833.59;1824262;79;21073;-66
2022/02/10 00:46:20;;;;;;;10.48;5.35;;;;;;;1.90;75.11;101838.76;1824275;79;21558;-66
2022/02/10 00:48:49;;;;;;;12.23;6.58;;;;;;;1.91;75.11;101839.22;1824253;79;21563;-63
2022/02/10 00:51:18;;;;;;;15.48;8.90;;;;;;;1.93;75.16;101831.88;1824413;79;21073;-63
2022/02/10 00:53:47;;;;;;;15.88;8.83;;;;;;;1.96;75.20;101838.00;1812858;78;21591;-63
2022/02/10 00:56:16;;;;;;;17.37;8.35;;;;;;;1.97;75.25;101837.13;1806789;79;21079;-62
2022/02/10 00:58:55;;;;;;;18.10;9.68;;;;;;;1.95;75.28;101823.25;1806848;79;21149;-64
2022/02/10 01:10:23;;;;;;;11.05;5.87;;;;;;;1.95;75.33;101837.11;1848501;78;21117;-62
2022/02/10 01:12:45;;;;;;;13.38;6.87;;;;;;;1.98;75.27;101846.25;1848584;77;21026;-64
2022/02/10 01:31:33;;;;;;;9.75;3.67;;;;;;;2.21;75.37;101859.54;1832968;78;21045;-69
2022/02/10 01:34:02;;;;;;;7.22;3.72;;;;;;;2.25;75.33;101861.35;1832919;78;21160;-67
2022/02/10 01:36:31;;;;;;;7.67;3.45;;;;;;;2.28;75.32;101858.77;1853090;77;21021;-67
2022/02/10 01:39:00;;;;;;;7.67;3.70;;;;;;;2.31;75.28;101858.83;1864126;76;21529;-66
2022/02/10 02:03:41;;;;;;;12.43;5.80;;;;;;;2.48;74.98;101884.16;1853066;77;21521;-66
2022/02/10 02:06:14;;;;;;;14.28;5.22;;;;;;;2.47;74.95;101883.30;1852974;77;21071;-66
2022/02/10 02:08:41;;;;;;;16.93;5.28;;;;;;;2.50;74.90;101890.25;1853066;76;21133;-66
2022/02/10 02:11:10;;;;;;;14.93;5.97;;;;;;;2.50;74.96;101893.72;1852943;77;21446;-66
2022/02/10 02:13:39;;;;;;;15.63;6.60;;;;;;;2.54;75.00;101896.37;1881447;76;21020;-67
2022/02/10 02:16:08;;;;;;;19.10;6.58;;;;;;;2.54;75.10;101899.83;1884789;76;21133;-65
2022/02/10 02:18:36;;;;;;;17.37;6.55;;;;;;;2.56;75.17;101896.82;1884823;76;21035;-69
2022/02/10 02:21:05;;;;;;;19.10;6.10;;;;;;;2.59;75.20;101902.51;1885005;76;21128;-66
2022/02/10 02:23:34;;;;;;;18.95;6.40;;;;;;;2.61;75.19;101904.26;1884876;76;21120;-69
2022/02/10 02:26:11;;;;;;;18.37;7.37;;;;;;;2.65;75.19;101911.67;1885086;76;21574;-66
2022/02/10 02:28:46;;;;;;;15.48;5.92;;;;;;;2.66;75.18;101909.09;1884765;75;21075;-66
2022/02/10 02:31:11;;;;;;;21.73;7.33;;;;;;;2.67;75.17;101917.36;1882808;75;21071;-66
2022/02/10 03:06:36;;;;;;;27.77;8.68;;;;;;;2.93;75.37;101958.39;1912278;75;21083;-68
2022/02/10 03:09:11;;;;;;;21.73;9.08;;;;;;;2.95;75.29;101955.81;1912201;75;21113;-69
2022/02/10 03:11:36;;;;;;;22.75;8.05;;;;;;;2.96;75.36;101959.74;1910014;73;21044;-66
2022/02/10 03:14:14;;;;;;;23.35;8.63;;;;;;;2.98;75.35;101957.16;1886101;76;21023;-69
2022/02/10 03:19:41;;;;;;;21.97;8.80;;;;;;;3.02;75.35;101964.14;1749045;81;21110;-68
2022/02/10 04:13:53;;;;;;;17.62;6.70;;;;;;;3.00;74.61;102003.59;1908858;75;21501;-61
2022/02/10 04:16:20;;;;;;;18.00;6.90;;;;;;;3.00;74.47;102008.80;1906710;75;21113;-61
2022/02/10 04:21:47;;;;;;;14.40;7.05;;;;;;;3.03;74.26;102008.41;1895701;75;21032;-60
2022/02/10 04:27:08;;;;;;;15.75;6.62;;;;;;;3.04;74.35;102014.47;1900741;75;21025;-63
2022/02/10 04:32:22;;;;;;;16.65;7.40;;;;;;;3.02;74.23;102011.84;1887243;75;21047;-60
2022/02/10 04:43:27;;;;;;;15.98;7.17;;;;;;;2.91;74.09;102019.95;1907096;74;21039;-60
2022/02/10 04:54:13;;;;;;;19.40;7.62;;;;;;;2.85;74.29;102031.58;1849210;77;21513;-64
2022/02/10 05:15:37;;;;;;;17.55;6.65;;;;;;;2.79;74.35;102031.52;1879458;76;21141;-63
2022/02/10 05:20:31;;;;;;;12.37;5.78;;;;;;;3.22;74.93;102037.26;1879407;76;21121;-61
2022/02/10 05:23:15;;;;;;;13.90;5.75;;;;;;;3.65;74.95;102045.55;1879214;76;21079;-61
2022/02/10 05:33:49;;;;;;;18.42;6.20;;;;;;;5.06;73.08;102050.13;1909864;74;21067;-59
2022/02/10 05:36:15;;;;;;;19.12;7.55;;;;;;;5.54;72.83;102053.78;1909893;75;21125;-61
2022/02/10 05:38:51;;;;;;;18.05;7.25;;;;;;;5.65;72.06;102048.14;1912236;74;21113;-61
2022/02/10 05:44:03;;;;;;;17.75;8.78;;;;;;;5.65;70.91;102044.23;1879433;76;21055;-62
2022/02/10 05:57:54;;;;;;;17.67;9.93;;;;;;;4.92;70.00;102073.52;1884021;75;21025;-58
2022/02/10 06:47:41;;;;;;;20.48;8.53;;;;;;;4.13;70.75;102083.39;1862584;77;21038;-60
2022/02/10 06:49:55;;;;;;;15.20;6.83;;;;;;;4.14;70.82;102081.21;1858530;77;21050;-61
2022/02/10 06:52:16;;;;;;;15.95;6.95;;;;;;;4.16;70.85;102076.02;1859309;77;21097;-60
2022/02/10 07:03:28;;;;;;;16.90;6.85;;;;;;;4.54;70.80;102081.55;1862458;77;21045;-61
2022/02/10 07:08:29;;;;;;;20.92;6.60;;;;;;;4.79;70.63;102081.27;1862688;77;21049;-61
2022/02/10 07:10:55;;;;;;;15.05;6.62;;;;;;;4.87;70.60;102081.34;1859530;77;21077;-60
2022/02/10 07:13:42;;;;;;;15.58;7.12;;;;;;;4.93;70.51;102076.59;1860088;77;21135;-61
2022/02/10 07:51:55;;;;;;;19.10;8.23;;;;;;;5.71;69.92;102113.48;1862670;77;21098;-61
2022/02/10 07:54:15;;;;;;;18.20;7.97;;;;;;;5.80;69.92;102113.95;1858881;77;21453;-61
2022/02/10 07:57:00;;;;;;;20.40;8.60;;;;;;;5.90;69.92;102117.45;1861851;77;21129;-61
2022/02/10 07:59:42;;;;;;;24.77;11.35;;;;;;;5.96;69.79;102118.83;1860312;77;21133;-61
2022/02/10 08:26:06;;;;;;;21.15;8.48;;;;;;;6.24;69.74;102118.43;1862642;77;21069;-61
2022/02/10 08:54:59;;;;;;;;;;;;;;;13.13;58.75;102112.45;1865422;77;21101;-60
2022/02/10 08:56:49;;;;;;;13.78;6.30;;;;;;;13.50;58.65;102103.50;1839679;77;20118;-60
2022/02/10 09:07:45;;;;;;;10.48;4.70;;;;;;;13.49;54.37;102104.39;1849836;76;21111;-60
2022/02/10 09:10:32;;;;;;;10.80;3.72;;;;;;;12.46;56.23;102116.41;1859049;77;21075;-60
2022/02/10 09:12:56;;;;;;;7.53;3.98;;;;;;;11.58;57.37;102122.37;1858925;77;21507;-60
2022/02/10 09:24:39;;;;;;;7.72;3.50;;;;;;;15.53;51.65;102106.86;1862719;77;21046;-59
2022/02/10 09:59:29;;;;;;;6.67;2.52;;;;;;;12.01;52.18;102097.25;1875158;76;21073;-58
2022/02/10 10:01:58;;;;;;;3.72;2.30;;;;;;;13.37;49.52;102093.30;1872112;76;21194;-59
2022/02/10 10:04:20;;;;;;;3.50;1.57;;;;;;;12.99;50.18;102089.95;1871705;76;21194;-59
2022/02/10 10:07:04;;;;;;;3.22;1.57;;;;;;;14.23;47.30;102084.89;1874525;76;21589;-61
2022/02/10 10:09:36;;;;;;;5.30;2.05;;;;;;;14.40;46.91;102084.78;1872830;76;21135;-61
2022/02/10 10:14:40;;;;;;;5.47;2.22;;;;;;;12.43;50.13;102087.87;1874660;76;21077;-62
2022/02/10 10:19:58;;;;;;;4.47;2.05;;;;;;;11.07;52.37;102097.47;1875226;76;21037;-61
2022/02/10 10:22:50;;;;;;;4.22;1.95;;;;;;;10.68;53.24;102092.05;1873767;76;21131;-61
2022/02/10 10:25:53;;;;;;;4.92;2.52;;;;;;;11.03;52.96;102093.16;1872541;76;21043;-61
2022/02/10 10:53:16;;;;;;;4.10;1.72;;;;;;;12.55;48.33;102077.01;1874998;76;21049;-59
2022/02/10 10:55:50;;;;;;;6.25;1.67;;;;;;;11.59;48.38;102076.60;1873543;76;21116;-58
2022/02/10 10:58:18;;;;;;;15.93;10.32;;;;;;;10.93;49.80;102073.14;1873639;76;21511;-58
2022/02/10 11:01:11;;;;;;;6.62;1.55;;;;;;;10.26;51.46;102081.31;1874735;76;21093;-59
2022/02/10 11:03:46;;;;;;;3.62;1.50;;;;;;;10.26;51.46;102081.31;1869872;76;21135;-59
2022/02/10 11:39:39;;;;;;;4.03;2.05;;;;;;;10.39;48.70;102073.66;1875128;76;21072;-60
2022/02/10 12:37:06;;;;;;;3.50;2.60;;;;;;;10.05;49.14;102064.08;1857583;77;21103;-60
2022/02/10 13:23:36;;;;;;;13.90;7.20;;;;;;;8.62;51.49;102088.23;1857554;77;21033;-60
2022/02/10 14:11:13;;;;;;;8.50;2.75;;;;;;;6.76;55.04;102147.66;1877838;76;21496;-60
2022/02/10 14:16:03;;;;;;;8.03;3.00;;;;;;;6.74;55.23;102155.95;1877788;76;21037;-60
2022/02/10 14:18:30;;;;;;;9.90;4.00;;;;;;;6.67;55.39;102148.97;1876637;76;21089;-60
2022/02/10 14:21:10;;;;;;;4.80;3.20;;;;;;;6.59;55.61;102159.89;1877766;76;21111;-60
2022/02/10 14:28:39;;;;;;;;;;;;;;;6.31;56.20;102182.97;1880560;76;21073;-60
2022/02/10 14:31:09;;;;;;;7.33;2.15;;;;;;;6.26;56.25;102191.23;1877684;76;20117;-60
2022/02/10 14:36:35;;;;;;;6.00;2.33;;;;;;;6.05;56.64;102192.06;1833884;78;21130;-60
2022/02/10 15:32:31;;;;;;;11.30;3.42;;;;;;;4.83;59.73;102217.88;1834039;78;21033;-62
2022/02/10 15:45:55;;;;;;;12.33;4.22;;;;;;;4.78;59.94;102213.07;1819767;78;21058;-62
2022/02/10 15:50:24;;;;;;;18.05;3.45;;;;;;;4.83;60.11;102212.25;1816845;79;21591;-61
2022/02/10 15:55:45;;;;;;;9.48;3.50;;;;;;;4.83;60.19;102219.17;1801256;79;21166;-60
2022/02/10 16:19:31;;;;;;;11.03;6.17;;;;;;;4.89;60.47;102233.61;1787818;80;21035;-61
2022/02/10 16:22:25;;;;;;;18.52;5.97;;;;;;;4.89;60.47;102233.61;1787588;80;21583;-63
2022/02/10 16:24:35;;;;;;;20.85;6.37;;;;;;;4.89;60.67;102240.13;1787862;80;21122;-59
2022/02/10 16:29:46;;;;;;;19.42;7.87;;;;;;;4.83;60.83;102240.95;1789319;80;21148;-61
2022/02/10 16:32:16;;;;;;;20.45;7.92;;;;;;;4.75;61.05;102245.21;1787562;80;21602;-61
2022/02/10 16:34:45;;;;;;;30.20;8.40;;;;;;;4.64;61.34;102237.28;1787625;80;21090;-61
2022/02/10 16:37:14;;;;;;;33.05;8.50;;;;;;;4.59;61.50;102232.88;1787273;77;21165;-60
2022/02/10 16:39:43;;;;;;;18.67;6.53;;;;;;;4.51;61.79;102227.59;1787087;80;21062;-61
2022/02/10 16:42:16;;;;;;;25.05;8.38;;;;;;;4.51;62.00;102228.89;1787023;80;21134;-60
2022/02/10 16:44:51;;;;;;;20.37;6.47;;;;;;;4.51;62.07;102234.55;1787303;80;21122;-61
2022/02/10 16:47:21;;;;;;;16.85;5.80;;;;;;;4.50;62.08;102238.91;1787112;80;21090;-60
2022/02/10 16:49:52;;;;;;;14.58;5.62;;;;;;;4.54;62.03;102242.42;1808207;79;21086;-61
2022/02/10 16:52:25;;;;;;;13.20;5.70;;;;;;;4.57;61.99;102240.69;1816591;79;21027;-61
2022/02/10 16:55:03;;;;;;;15.05;6.40;;;;;;;4.60;62.02;102239.42;1816192;79;21103;-62
2022/02/10 16:57:34;;;;;;;9.85;4.47;;;;;;;4.62;62.11;102240.30;1814810;79;21055;-62
2022/02/10 17:03:05;;;;;;;9.03;3.95;;;;;;;4.66;62.31;102236.44;1816602;78;21079;-61
2022/02/10 17:27:27;;;;;;;13.05;4.95;;;;;;;4.88;62.82;102237.50;1815202;78;21070;-61
2022/02/10 17:32:50;;;;;;;11.43;4.90;;;;;;;4.92;62.84;102238.83;1815084;79;21700;-61
2022/02/10 17:46:20;;;;;;;18.55;5.20;;;;;;;4.98;63.12;102244.13;1813990;77;21110;-60
2022/02/10 17:54:02;;;;;;;14.53;5.33;;;;;;;5.02;63.35;102241.97;1827265;78;21047;-63
2022/02/10 17:56:31;;;;;;;11.15;4.65;;;;;;;5.05;63.40;102245.03;1805074;79;21038;-63
2022/02/10 17:59:00;;;;;;;18.10;6.17;;;;;;;5.09;63.41;102247.23;1804570;79;21513;-63
2022/02/10 18:01:30;;;;;;;12.15;5.85;;;;;;;5.12;63.40;102244.66;1805129;79;21059;-62
2022/02/10 18:03:59;;;;;;;14.10;5.92;;;;;;;5.14;63.42;102248.16;1806322;78;21079;-62
2022/02/10 18:06:29;;;;;;;15.48;5.20;;;;;;;5.18;63.43;102251.22;1826477;78;21552;-62
2022/02/10 18:14:30;;;;;;;14.05;6.40;;;;;;;5.21;63.42;102249.95;1804685;79;21564;-62
2022/02/10 18:17:04;;;;;;;13.53;7.58;;;;;;;5.20;63.44;102248.19;1805564;79;21067;-61
2022/02/10 18:19:42;;;;;;;18.67;9.38;;;;;;;5.18;63.55;102246.90;1804674;79;21071;-61
2022/02/10 18:22:31;;;;;;;22.05;11.53;;;;;;;5.15;63.63;102246.86;1803761;79;21067;-60
2022/02/10 18:25:14;;;;;;;21.70;11.33;;;;;;;5.17;63.67;102250.80;1805507;79;21097;-60
2022/02/10 18:27:38;;;;;;;21.00;10.55;;;;;;;5.17;63.75;102246.44;1849024;76;21059;-61
2022/02/10 18:30:15;;;;;;;21.07;9.50;;;;;;;5.19;63.79;102251.68;1858642;76;21078;-61
2022/02/10 18:54:25;;;;;;;7.55;2.80;;;;;;;5.27;63.88;102242.15;1818131;79;21148;-61
2022/02/10 19:03:49;;;;;;;12.00;6.08;;;;;;;5.51;64.15;102248.41;1849451;77;21480;-60
2022/02/10 19:08:09;;;;;;;10.40;4.95;;;;;;;5.55;64.17;102256.28;1849446;77;21151;-61
2022/02/10 19:10:26;;;;;;;15.95;5.53;;;;;;;5.57;64.22;102254.96;1846282;77;21042;-61
2022/02/10 19:12:57;;;;;;;11.50;4.87;;;;;;;5.57;64.26;102246.71;1849453;77;21070;-61
2022/02/10 19:15:35;;;;;;;7.72;3.85;;;;;;;5.59;64.25;102250.64;1849421;77;21041;-61
2022/02/10 19:17:56;;;;;;;10.10;3.80;;;;;;;5.62;64.28;102251.95;1847457;77;21100;-61
2022/02/10 19:20:26;;;;;;;10.50;4.03;;;;;;;5.58;64.44;102243.66;1849438;77;21111;-62
2022/02/10 19:22:55;;;;;;;4.92;3.08;;;;;;;5.58;64.51;102246.27;1849321;77;21062;-62
2022/02/10 19:25:24;;;;;;;4.83;2.72;;;;;;;5.58;64.69;102239.73;1849433;77;21468;-61
2022/02/10 19:27:53;;;;;;;2.37;1.35;;;;;;;5.58;64.92;102238.43;1862645;76;21587;-61
2022/02/10 19:30:24;;;;;;;6.70;1.70;;;;;;;5.58;64.98;102239.73;1849466;77;21036;-61
2022/02/10 19:32:57;;;;;;;5.15;1.67;;;;;;;5.57;65.14;102228.42;1849389;77;21114;-61
2022/02/10 19:35:26;;;;;;;3.05;1.27;;;;;;;5.60;65.14;102219.71;1848906;77;21036;-61
2022/02/10 19:37:58;;;;;;;3.55;1.80;;;;;;;5.63;65.20;102231.50;1849343;77;21056;-61
2022/02/10 19:40:30;;;;;;;5.50;1.92;;;;;;;5.66;65.13;102227.58;1849399;77;21538;-61
2022/02/10 19:42:58;;;;;;;3.98;1.87;;;;;;;5.68;65.25;102232.41;1849371;77;21145;-61
2022/02/10 19:45:27;;;;;;;3.92;1.40;;;;;;;5.70;65.34;102230.67;1849387;77;21154;-60
2022/02/10 19:47:56;;;;;;;7.15;1.55;;;;;;;5.75;65.45;102225.00;1849489;77;21447;-60
2022/02/10 19:50:28;;;;;;;1.32;1.10;;;;;;;5.76;65.53;102221.54;1849371;77;21510;-60
2022/02/10 19:52:59;;;;;;;2.80;1.95;;;;;;;5.79;65.54;102231.13;1849335;77;21068;-62
2022/02/10 19:55:27;;;;;;;3.87;1.75;;;;;;;5.83;65.68;102217.64;1849178;77;21142;-61
2022/02/10 19:58:07;;;;;;;2.58;1.85;;;;;;;5.84;65.63;102219.40;1849381;77;21058;-61
2022/02/10 20:00:40;;;;;;;3.17;1.60;;;;;;;5.85;65.68;102221.16;1850889;76;21189;-61
2022/02/10 20:03:19;;;;;;;3.67;1.85;;;;;;;5.87;65.71;102224.66;1840083;78;21047;-62
2022/02/10 20:05:50;;;;;;;10.00;3.10;;;;;;;5.90;65.71;102225.95;1843333;76;21124;-61
2022/02/10 20:08:22;;;;;;;7.78;2.10;;;;;;;5.89;65.88;102221.60;1840356;78;21058;-61
2022/02/10 20:10:54;;;;;;;2.13;1.27;;;;;;;5.91;65.92;102224.66;1886450;76;21054;-61
2022/02/10 20:13:28;;;;;;;5.33;2.12;;;;;;;5.94;65.98;102227.29;1884432;76;21597;-61
2022/02/10 20:16:01;;;;;;;3.50;1.75;;;;;;;5.95;65.93;102226.84;1885722;76;21050;-62
2022/02/10 20:18:29;;;;;;;2.72;1.50;;;;;;;5.97;65.90;102227.75;1867656;76;21011;-61
2022/02/10 20:20:58;;;;;;;1.87;1.07;;;;;;;5.98;65.92;102229.08;1858658;76;21473;-61
2022/02/10 20:23:32;;;;;;;5.10;1.77;;;;;;;6.00;66.02;102226.47;1860421;76;21081;-63
2022/02/10 20:25:58;;;;;;;3.25;1.30;;;;;;;6.03;66.01;102224.29;1849209;76;21046;-64
2022/02/10 20:28:29;;;;;;;4.50;2.12;;;;;;;6.04;66.05;102228.22;1845562;78;21528;-63
2022/02/10 20:30:59;;;;;;;5.95;1.95;;;;;;;6.05;65.99;102231.29;1845026;76;21155;-65
2022/02/10 20:33:30;;;;;;;2.02;1.30;;;;;;;6.06;65.95;102240.87;1845323;78;21140;-61
2022/02/10 20:36:02;;;;;;;3.92;1.75;;;;;;;6.06;66.03;102238.25;1856097;76;21149;-62
2022/02/10 20:38:32;;;;;;;5.45;2.27;;;;;;;6.06;66.04;102248.71;1848619;76;21055;-62
2022/02/10 20:41:07;;;;;;;5.03;1.80;;;;;;;6.07;66.03;102245.23;1843509;77;21113;-62
2022/02/10 20:43:35;;;;;;;6.28;1.32;;;;;;;6.10;66.04;102244.36;1848143;76;21027;-62
2022/02/10 20:46:08;;;;;;;3.80;1.12;;;;;;;6.09;66.14;102247.87;1820082;76;21074;-61
2022/02/10 20:48:37;;;;;;;4.08;1.82;;;;;;;6.10;66.15;102253.08;1825986;76;21177;-61
2022/02/10 20:51:09;;;;;;;5.42;1.50;;;;;;;6.11;66.16;102246.99;1847540;76;21059;-62
2022/02/10 20:53:41;;;;;;;6.85;1.12;;;;;;;6.13;66.25;102254.41;1851795;76;21125;-61
2022/02/10 20:56:12;;;;;;;3.90;1.00;;;;;;;6.14;66.23;102255.27;1867119;76;21054;-63
2022/02/10 20:58:42;;;;;;;2.12;1.30;;;;;;;6.15;66.24;102251.80;1849067;76;21173;-61
2022/02/10 21:01:14;;;;;;;3.45;1.60;;;;;;;6.16;66.21;102253.13;1850790;77;21163;-62
2022/02/10 21:03:43;;;;;;;3.87;1.22;;;;;;;6.17;66.21;102254.85;1849949;77;21193;-61
2022/02/10 21:06:43;;;;;;;2.42;1.07;;;;;;;6.19;66.17;102258.78;1832932;77;21236;-61
2022/02/10 21:11:23;;;;;;;3.98;1.62;;;;;;;6.18;66.25;102256.61;1845498;77;21166;-62
2022/02/10 21:13:50;;;;;;;2.60;1.35;;;;;;;6.20;66.29;102259.23;1843059;76;21048;-62
2022/02/10 21:16:19;;;;;;;7.17;2.15;;;;;;;6.18;66.38;102261.84;1872407;76;21486;-61
2022/02/10 21:18:49;;;;;;;6.20;2.05;;;;;;;6.18;66.29;102264.45;1873146;76;21068;-61
2022/02/10 21:21:18;;;;;;;8.75;1.85;;;;;;;6.19;66.37;102268.80;1873181;76;21498;-63
2022/02/10 21:23:55;;;;;;;4.78;1.37;;;;;;;6.19;66.49;102258.34;1872789;76;21479;-62
2022/02/10 21:26:26;;;;;;;;;;;;;;;6.21;66.46;102253.56;1841283;76;21067;-61
2022/02/10 21:28:50;;;;;;;5.25;1.72;;;;;;;6.21;66.59;102260.97;1811951;77;20156;-63
2022/02/10 21:31:20;;;;;;;3.20;0.80;;;;;;;6.20;66.50;102261.85;1808684;79;21062;-64
2022/02/10 21:34:01;;;;;;;1.62;0.72;;;;;;;6.21;66.65;102257.48;1808603;79;21450;-62
2022/02/10 21:39:07;;;;;;;4.58;1.35;;;;;;;6.17;66.94;102250.92;1808550;79;21162;-63
2022/02/10 21:47:37;;;;;;;3.47;1.00;;;;;;;6.17;67.35;102259.22;1808481;79;21145;-65
2022/02/10 21:55:32;;;;;;;7.80;3.00;;;;;;;6.17;67.71;102239.16;1808488;79;21505;-66
2022/02/10 22:06:32;;;;;;;5.85;2.02;;;;;;;6.25;68.45;102250.08;1801225;80;21050;-69
2022/02/10 22:17:00;;;;;;;4.67;2.00;;;;;;;6.25;69.21;102252.70;1810027;79;21030;-65
2022/02/10 22:19:19;;;;;;;6.20;1.67;;;;;;;6.27;69.49;102248.34;1807590;79;21058;-65
2022/02/10 22:21:59;;;;;;;6.22;1.52;;;;;;;6.28;69.77;102256.64;1809812;79;21089;-59
2022/02/10 22:24:23;;;;;;;9.43;1.62;;;;;;;6.28;69.96;102251.41;1801589;79;21054;-59
2022/02/10 22:26:53;;;;;;;6.08;2.27;;;;;;;6.28;69.93;102257.95;1809999;79;21096;-63
2022/02/10 22:29:29;;;;;;;5.85;2.20;;;;;;;6.28;70.05;102248.80;1849973;76;21089;-65
2022/02/10 22:32:07;;;;;;;6.60;1.85;;;;;;;6.28;70.38;102247.05;1843939;76;21121;-66
2022/02/10 22:37:01;;;;;;;;;;;;;;;6.28;70.35;102242.25;1869267;76;21054;-64
2022/02/10 22:39:34;;;;;;;4.30;1.82;;;;;;;6.29;70.61;102247.91;1878676;76;20117;-64
2022/02/10 22:42:01;;;;;;;2.47;1.70;;;;;;;6.26;70.63;102245.30;1878658;76;21501;-64
2022/02/10 22:44:29;;;;;;;6.10;2.40;;;;;;;6.25;70.50;102249.64;1878610;76;21062;-65
2022/02/10 22:46:58;;;;;;;11.57;3.58;;;;;;;6.27;70.64;102257.09;1878669;76;21051;-65
2022/02/10 22:49:27;;;;;;;9.60;3.20;;;;;;;6.25;70.90;102248.33;1878687;76;21050;-66
2022/02/10 22:51:56;;;;;;;8.18;3.05;;;;;;;6.27;71.07;102253.58;1878633;76;21154;-65
2022/02/10 22:54:25;;;;;;;7.37;2.35;;;;;;;6.27;71.06;102255.78;1878669;76;21517;-65
2022/02/10 22:56:54;;;;;;;6.25;2.45;;;;;;;6.28;71.32;102251.41;1878648;76;21593;-65
2022/02/10 22:59:22;;;;;;;8.78;2.00;;;;;;;6.25;71.40;102249.64;1878625;76;21498;-65
2022/02/10 23:01:52;;;;;;;7.35;2.30;;;;;;;6.27;71.59;102249.64;1878541;76;21140;-66
2022/02/10 23:04:21;;;;;;;6.17;2.47;;;;;;;6.27;71.57;102245.72;1878644;76;21031;-65
2022/02/10 23:06:54;;;;;;;6.90;2.08;;;;;;;6.26;71.71;102243.99;1878747;76;21050;-65
2022/02/10 23:12:02;;;;;;;7.50;2.60;;;;;;;6.26;72.01;102243.99;1860930;76;21565;-64
2022/02/10 23:14:31;;;;;;;8.73;3.08;;;;;;;6.25;72.08;102255.31;1878524;76;21066;-65
2022/02/10 23:17:00;;;;;;;5.67;2.90;;;;;;;6.22;72.48;102244.86;1878652;76;21555;-65
2022/02/10 23:19:29;;;;;;;4.10;2.17;;;;;;;6.19;72.91;102249.63;1878729;76;21058;-66
2022/02/10 23:21:57;;;;;;;6.28;2.65;;;;;;;6.17;73.01;102247.00;1878622;76;21531;-65
2022/02/10 23:24:26;;;;;;;8.68;3.55;;;;;;;6.15;73.15;102252.66;1878624;76;21473;-67
2022/02/10 23:26:55;;;;;;;7.08;2.20;;;;;;;6.14;73.17;102245.70;1878561;76;21128;-66
2022/02/10 23:29:24;;;;;;;4.37;2.70;;;;;;;6.15;73.62;102239.59;1879887;75;21738;-66
2022/02/10 23:31:53;;;;;;;9.18;3.30;;;;;;;6.14;73.77;102249.63;1884711;76;21067;-66
2022/02/10 23:34:22;;;;;;;8.40;4.15;;;;;;;6.15;73.75;102250.05;1884902;76;21477;-66
2022/02/10 23:36:53;;;;;;;9.13;3.72;;;;;;;6.15;73.80;102251.36;1884802;76;21066;-65
2022/02/10 23:39:30;;;;;;;7.30;3.55;;;;;;;6.16;73.70;102253.13;1884775;76;21050;-66
2022/02/10 23:42:04;;;;;;;7.62;2.95;;;;;;;6.18;73.54;102254.00;1884710;76;21042;-65
2022/02/10 23:44:31;;;;;;;12.25;3.77;;;;;;;6.19;73.62;102254.41;1883753;76;21120;-65
2022/02/10 23:47:00;;;;;;;8.30;5.28;;;;;;;6.21;73.78;102255.73;1884705;76;21046;-66
2022/02/10 23:49:32;;;;;;;9.75;5.20;;;;;;;6.19;73.84;102254.41;1884856;76;21047;-65
2022/02/10 23:52:04;;;;;;;17.48;6.40;;;;;;;6.19;74.08;102254.86;1884827;76;21050;-66
2022/02/10 23:54:34;;;;;;;8.70;3.60;;;;;;;6.20;74.18;102255.31;1884940;76;21063;-65
2022/02/10 23:57:15;;;;;;;5.10;3.10;;;;;;;6.21;74.20;102254.88;1884835;76;21066;-66
